createdAt,value
2019-05-05T00:01:07.477Z,4.60
2019-05-05T00:03:49.867Z,4.73
2019-05-05T00:06:18.725Z,3.70
2019-05-05T00:08:47.326Z,4.77
2019-05-05T00:11:19.139Z,4.87
2019-05-05T00:14:04.798Z,5.17
2019-05-05T00:16:38.190Z,5.33
2019-05-05T00:19:06.861Z,4.67
2019-05-05T00:21:35.424Z,5.67
2019-05-05T00:24:04.622Z,4.27
2019-05-05T00:26:34.904Z,5.80
2019-05-05T00:29:04.464Z,6.03
2019-05-05T00:31:34.887Z,6.33
2019-05-05T00:34:05.032Z,4.80
2019-05-05T00:36:35.190Z,5.43
2019-05-05T00:39:06.041Z,6.17
2019-05-05T00:41:34.726Z,6.13
2019-05-05T00:44:04.745Z,5.43
2019-05-05T00:46:51.647Z,6.07
2019-05-05T00:49:20.541Z,4.47
2019-05-05T00:51:49.029Z,6.90
2019-05-05T00:54:17.715Z,5.07
2019-05-05T00:56:46.253Z,5.53
2019-05-05T00:59:17.986Z,6.30
2019-05-05T01:02:04.700Z,7.63
2019-05-05T01:04:51.294Z,5.07
2019-05-05T01:07:20.566Z,5.40
2019-05-05T01:09:49.229Z,5.50
2019-05-05T01:12:18.246Z,6.87
2019-05-05T01:14:46.800Z,5.07
2019-05-05T01:17:15.435Z,7.00
2019-05-05T01:19:46.705Z,9.60
2019-05-05T01:22:14.581Z,6.97
2019-05-05T01:24:43.251Z,7.00
2019-05-05T01:27:11.995Z,6.73
2019-05-05T01:29:40.553Z,4.57
2019-05-05T01:32:10.860Z,8.10
2019-05-05T01:34:41.063Z,6.30
2019-05-05T01:37:11.313Z,6.47
2019-05-05T01:39:45.222Z,7.20
2019-05-05T01:42:15.789Z,8.00
2019-05-05T01:44:44.867Z,7.67
2019-05-05T01:47:14.819Z,5.70
2019-05-05T01:49:45.277Z,5.83
2019-05-05T01:52:14.921Z,5.90
2019-05-05T01:54:44.624Z,5.90
2019-05-05T01:57:14.753Z,5.73
2019-05-05T01:59:44.768Z,6.93
2019-05-05T02:02:14.586Z,6.10
2019-05-05T02:04:44.671Z,6.60
2019-05-05T02:07:14.449Z,5.17
2019-05-05T02:09:44.910Z,5.13
2019-05-05T02:12:15.232Z,5.93
2019-05-05T02:14:44.568Z,6.50
2019-05-05T02:17:14.399Z,7.53
2019-05-05T02:19:44.366Z,8.00
2019-05-05T02:22:14.634Z,7.03
2019-05-05T02:24:44.448Z,6.37
2019-05-05T02:27:14.580Z,6.43
2019-05-05T02:29:48.107Z,7.53
2019-05-05T02:32:25.765Z,5.40
2019-05-05T02:34:58.903Z,6.87
2019-05-05T02:37:27.594Z,7.63
2019-05-05T02:40:02.713Z,6.73
2019-05-05T02:42:27.814Z,5.77
2019-05-05T02:44:59.646Z,6.40
2019-05-05T02:47:34.867Z,6.03
2019-05-05T02:50:06.656Z,7.50
2019-05-05T02:52:37.377Z,7.10
2019-05-05T02:55:06.469Z,6.60
2019-05-05T02:57:38.112Z,8.93
2019-05-05T03:00:13.410Z,8.43
2019-05-05T03:02:43.437Z,8.10
2019-05-05T03:05:14.321Z,7.90
2019-05-05T03:07:43.823Z,7.23
2019-05-05T03:10:14.103Z,7.33
2019-05-05T03:12:43.958Z,7.77
2019-05-05T03:15:15.754Z,9.00
2019-05-05T03:17:45.250Z,6.97
2019-05-05T03:20:14.755Z,5.83
2019-05-05T03:22:43.729Z,7.77
2019-05-05T03:25:13.637Z,6.63
2019-05-05T03:27:44.425Z,7.87
2019-05-05T03:30:15.406Z,6.90
2019-05-05T03:32:45.595Z,5.83
2019-05-05T03:35:13.847Z,7.47
2019-05-05T03:37:44.619Z,6.83
2019-05-05T03:40:15.090Z,6.80
2019-05-05T03:42:45.555Z,6.73
2019-05-05T03:45:15.942Z,6.13
2019-05-05T03:47:44.611Z,7.30
2019-05-05T03:50:23.287Z,7.73
2019-05-05T03:52:51.974Z,7.80
2019-05-05T03:55:21.040Z,5.10
2019-05-05T03:57:49.709Z,6.10
2019-05-05T04:00:19.549Z,5.53
2019-05-05T04:02:49.324Z,6.53
2019-05-05T04:05:19.197Z,5.67
2019-05-05T04:07:47.568Z,6.03
2019-05-05T04:10:16.265Z,5.03
2019-05-05T04:12:45.334Z,7.67
2019-05-05T04:15:14.267Z,6.80
2019-05-05T04:17:44.456Z,6.63
2019-05-05T04:20:20.601Z,6.13
2019-05-05T04:22:48.807Z,8.37
2019-05-05T04:25:17.354Z,7.33
2019-05-05T04:27:45.893Z,6.10
2019-05-05T04:30:14.446Z,8.90
2019-05-05T04:32:43.925Z,7.20
2019-05-05T04:35:14.094Z,7.13
2019-05-05T04:37:43.721Z,6.63
2019-05-05T04:40:14.630Z,7.47
2019-05-05T04:42:44.117Z,8.33
2019-05-05T04:45:14.749Z,6.93
2019-05-05T04:47:50.690Z,7.27
2019-05-05T04:50:20.871Z,8.43
2019-05-05T04:52:51.134Z,8.10
2019-05-05T04:55:19.594Z,11.73
2019-05-05T04:57:48.154Z,7.30
2019-05-05T05:00:17.421Z,9.30
2019-05-05T05:02:53.999Z,7.80
2019-05-05T05:05:24.495Z,8.17
2019-05-05T05:07:54.633Z,8.10
2019-05-05T05:10:24.047Z,7.50
2019-05-05T05:12:53.971Z,9.13
2019-05-05T05:15:23.878Z,10.00
2019-05-05T05:18:14.566Z,8.60
2019-05-05T05:20:44.323Z,9.07
2019-05-05T05:23:14.262Z,10.73
2019-05-05T05:25:43.858Z,9.27
2019-05-05T05:28:14.361Z,9.47
2019-05-05T05:30:43.942Z,9.63
2019-05-05T05:33:14.761Z,9.80
2019-05-05T05:35:44.144Z,10.43
2019-05-05T05:38:14.034Z,9.47
2019-05-05T05:40:44.554Z,9.23
2019-05-05T05:43:14.714Z,11.50
2019-05-05T05:45:44.950Z,9.73
2019-05-05T05:48:15.193Z,8.73
2019-05-05T05:50:48.217Z,8.70
2019-05-05T05:53:16.763Z,7.97
2019-05-05T05:55:45.375Z,9.00
2019-05-05T05:58:14.199Z,9.03
2019-05-05T06:00:44.274Z,8.97
2019-05-05T06:03:14.165Z,8.70
2019-05-05T06:05:43.674Z,9.10
2019-05-05T06:08:14.239Z,8.80
2019-05-05T06:10:44.307Z,9.03
2019-05-05T06:13:15.205Z,8.40
2019-05-05T06:15:44.397Z,8.93
2019-05-05T06:18:13.787Z,9.77
2019-05-05T06:20:44.577Z,9.83
2019-05-05T06:23:14.750Z,9.67
2019-05-05T06:25:44.537Z,9.50
2019-05-05T06:28:14.503Z,10.20
2019-05-05T06:30:44.378Z,9.40
2019-05-05T06:33:14.155Z,10.47
2019-05-05T06:35:44.340Z,10.43
2019-05-05T06:38:13.607Z,9.33
2019-05-05T06:40:50.321Z,9.13
2019-05-05T06:43:35.802Z,9.00
2019-05-05T06:46:06.270Z,9.57
2019-05-05T06:48:34.945Z,8.93
2019-05-05T06:51:04.028Z,9.43
2019-05-05T06:53:34.167Z,8.50
2019-05-05T06:56:04.061Z,8.63
2019-05-05T06:58:34.561Z,8.60
2019-05-05T07:01:03.593Z,8.43
2019-05-05T07:03:33.665Z,8.80
2019-05-05T07:06:04.238Z,9.00
2019-05-05T07:08:34.615Z,9.37
2019-05-05T07:11:04.121Z,10.30
2019-05-05T07:13:33.923Z,9.00
2019-05-05T07:16:04.624Z,9.50
2019-05-05T07:18:34.067Z,7.93
2019-05-05T07:21:03.782Z,8.47
2019-05-05T07:23:34.118Z,8.03
2019-05-05T07:26:04.180Z,7.37
2019-05-05T07:28:34.192Z,7.07
2019-05-05T07:31:04.374Z,7.70
2019-05-05T07:33:34.658Z,8.53
2019-05-05T07:36:21.407Z,8.90
2019-05-05T07:38:50.109Z,8.83
2019-05-05T07:41:18.642Z,7.30
2019-05-05T07:43:47.202Z,7.70
2019-05-05T07:46:15.733Z,7.17
2019-05-05T07:48:44.383Z,7.07
2019-05-05T07:51:14.119Z,8.37
2019-05-05T07:53:44.194Z,7.50
2019-05-05T07:56:14.485Z,7.57
2019-05-05T07:58:43.844Z,7.47
2019-05-05T08:01:14.181Z,7.63
2019-05-05T08:03:44.655Z,7.50
2019-05-05T08:06:14.514Z,6.70
2019-05-05T08:08:44.289Z,6.43
2019-05-05T08:11:14.775Z,7.50
2019-05-05T08:13:44.761Z,6.70
2019-05-05T08:16:17.973Z,8.07
2019-05-05T08:19:03.849Z,6.83
2019-05-05T08:21:34.597Z,7.90
2019-05-05T08:24:04.704Z,8.00
2019-05-05T08:26:54.619Z,7.47
2019-05-05T08:29:38.321Z,7.10
2019-05-05T08:32:08.500Z,6.90
2019-05-05T08:34:37.201Z,7.63
2019-05-05T08:37:05.832Z,7.33
2019-05-05T08:39:34.590Z,6.67
2019-05-05T08:42:04.329Z,6.40
2019-05-05T08:44:34.268Z,10.47
2019-05-05T08:47:04.443Z,6.90
2019-05-05T08:49:34.742Z,6.87
2019-05-05T08:52:04.035Z,6.30
2019-05-05T08:54:34.398Z,6.73
2019-05-05T08:57:04.245Z,5.97
2019-05-05T08:59:33.714Z,6.30
2019-05-05T09:02:04.487Z,5.53
2019-05-05T09:04:34.012Z,6.23
2019-05-05T09:07:04.791Z,6.33
2019-05-05T09:09:33.525Z,5.20
2019-05-05T09:12:04.407Z,6.77
2019-05-05T09:14:34.599Z,6.03
2019-05-05T09:17:04.503Z,6.47
2019-05-05T09:19:34.471Z,6.17
2019-05-05T09:22:05.665Z,7.70
2019-05-05T09:24:41.222Z,7.67
2019-05-05T09:27:11.558Z,6.03
2019-05-05T09:29:43.810Z,7.17
2019-05-05T09:32:13.877Z,6.57
2019-05-05T09:34:43.641Z,5.67
2019-05-05T09:37:14.213Z,6.47
2019-05-05T09:39:43.654Z,5.00
2019-05-05T09:42:14.496Z,6.90
2019-05-05T09:44:43.834Z,6.40
2019-05-05T09:47:15.000Z,6.13
2019-05-05T09:49:44.626Z,6.47
2019-05-05T09:52:15.092Z,6.90
2019-05-05T09:54:44.055Z,6.90
2019-05-05T09:57:14.522Z,6.93
2019-05-05T09:59:44.209Z,5.67
2019-05-05T10:02:13.161Z,6.60
2019-05-05T10:04:43.920Z,5.93
2019-05-05T10:07:13.729Z,8.43
2019-05-05T10:09:43.779Z,6.53
2019-05-05T10:12:12.574Z,5.63
2019-05-05T10:14:41.129Z,5.90
2019-05-05T10:17:09.769Z,5.97
2019-05-05T10:19:40.834Z,6.10
2019-05-05T10:22:09.618Z,7.07
2019-05-05T10:24:44.341Z,5.50
2019-05-05T10:27:12.946Z,5.60
2019-05-05T10:29:41.651Z,5.13
2019-05-05T10:32:10.356Z,5.30
2019-05-05T10:34:39.046Z,4.93
2019-05-05T10:37:07.697Z,4.83
2019-05-05T10:39:38.094Z,5.37
2019-05-05T10:42:06.810Z,6.57
2019-05-05T10:44:35.592Z,5.77
2019-05-05T10:47:04.836Z,5.67
2019-05-05T10:49:33.755Z,5.13
2019-05-05T10:52:03.687Z,5.10
2019-05-05T10:54:42.496Z,6.30
2019-05-05T10:57:04.010Z,5.80
2019-05-05T10:59:34.390Z,5.73
2019-05-05T11:02:04.909Z,5.50
2019-05-05T11:04:33.962Z,5.77
2019-05-05T11:07:04.196Z,4.67
2019-05-05T11:09:34.014Z,5.80
2019-05-05T11:12:02.657Z,5.60
2019-05-05T11:14:33.525Z,5.70
2019-05-05T11:17:04.061Z,5.20
2019-05-05T11:19:33.595Z,6.20
2019-05-05T11:22:02.418Z,5.83
2019-05-05T11:24:30.995Z,6.20
2019-05-05T11:26:59.607Z,6.87
2019-05-05T11:29:28.162Z,8.07
2019-05-05T11:31:58.443Z,7.97
2019-05-05T11:34:27.927Z,7.70
2019-05-05T11:37:00.671Z,6.03
2019-05-05T11:39:29.216Z,6.77
2019-05-05T11:41:57.907Z,7.10
2019-05-05T11:44:26.475Z,6.80
2019-05-05T11:46:55.084Z,6.70
2019-05-05T11:49:24.517Z,8.03
2019-05-05T11:51:54.257Z,8.10
2019-05-05T11:54:24.585Z,6.30
2019-05-05T11:56:54.061Z,4.90
2019-05-05T11:59:23.787Z,5.70
2019-05-05T12:01:54.971Z,6.13
2019-05-05T12:04:23.946Z,4.37
2019-05-05T12:06:53.193Z,4.40
2019-05-05T12:09:24.811Z,3.43
2019-05-05T12:11:54.542Z,4.47
2019-05-05T12:14:27.269Z,3.77
2019-05-05T12:16:56.099Z,4.57
2019-05-05T12:19:24.678Z,4.07
2019-05-05T12:21:54.840Z,4.00
2019-05-05T12:24:25.405Z,5.53
2019-05-05T12:26:55.747Z,4.20
2019-05-05T12:29:25.382Z,4.10
2019-05-05T12:31:54.068Z,3.60
2019-05-05T12:34:23.660Z,6.20
2019-05-05T12:36:53.924Z,4.10
2019-05-05T12:39:22.630Z,3.40
2019-05-05T12:41:51.416Z,4.37
2019-05-05T12:44:23.593Z,4.03
2019-05-05T12:46:56.135Z,4.37
2019-05-05T12:49:25.395Z,5.03
2019-05-05T12:51:54.219Z,4.37
2019-05-05T12:54:24.515Z,4.80
2019-05-05T12:56:53.966Z,4.53
2019-05-05T12:59:24.881Z,3.70
2019-05-05T13:01:54.791Z,4.00
2019-05-05T13:04:24.560Z,4.60
2019-05-05T13:06:54.098Z,3.70
2019-05-05T13:09:24.403Z,4.03
2019-05-05T13:11:54.214Z,3.90
2019-05-05T13:14:22.890Z,4.07
2019-05-05T13:16:53.911Z,3.60
2019-05-05T13:19:34.547Z,4.77
2019-05-05T13:22:20.523Z,3.97
2019-05-05T13:24:54.134Z,4.00
2019-05-05T13:27:25.020Z,3.57
2019-05-05T13:29:53.822Z,3.90
2019-05-05T13:32:24.601Z,4.43
2019-05-05T13:34:54.581Z,3.93
2019-05-05T13:37:24.428Z,5.37
2019-05-05T13:39:53.909Z,4.17
2019-05-05T13:42:24.378Z,4.83
2019-05-05T13:45:14.411Z,7.33
2019-05-05T13:47:43.697Z,5.10
2019-05-05T13:50:14.510Z,6.37
2019-05-05T13:52:44.233Z,6.47
2019-05-05T13:55:13.871Z,7.10
2019-05-05T13:57:44.453Z,8.50
2019-05-05T14:00:15.274Z,4.90
2019-05-05T14:02:43.973Z,4.93
2019-05-05T14:05:13.573Z,5.50
2019-05-05T14:07:43.679Z,4.83
2019-05-05T14:10:14.442Z,6.57
2019-05-05T14:12:43.795Z,6.47
2019-05-05T14:15:16.405Z,5.77
2019-05-05T14:17:46.294Z,4.20
2019-05-05T14:20:18.582Z,5.87
2019-05-05T14:22:54.322Z,5.63
2019-05-05T14:25:24.388Z,5.93
2019-05-05T14:27:54.147Z,4.00
2019-05-05T14:30:29.119Z,4.00
2019-05-05T14:32:58.524Z,3.53
2019-05-05T14:35:30.875Z,4.77
2019-05-05T14:38:01.322Z,4.30
2019-05-05T14:40:31.445Z,4.43
2019-05-05T14:43:01.604Z,3.50
2019-05-05T14:45:30.309Z,3.60
2019-05-05T14:47:59.078Z,4.07
2019-05-05T14:50:27.721Z,3.70
2019-05-05T14:52:56.413Z,2.80
2019-05-05T14:55:29.389Z,4.00
2019-05-05T14:57:58.066Z,3.50
2019-05-05T15:00:27.041Z,3.10
2019-05-05T15:02:55.986Z,4.37
2019-05-05T15:05:41.373Z,3.43
2019-05-05T15:08:16.091Z,3.33
2019-05-05T15:11:03.905Z,3.17
2019-05-05T15:13:33.615Z,3.47
2019-05-05T15:16:04.011Z,3.30
2019-05-05T15:18:34.545Z,3.30
2019-05-05T15:21:03.498Z,3.50
2019-05-05T15:23:32.142Z,3.43
2019-05-05T15:26:00.847Z,3.60
2019-05-05T15:28:29.466Z,3.10
2019-05-05T15:30:59.316Z,3.23
2019-05-05T15:33:28.165Z,3.30
2019-05-05T15:35:56.652Z,3.57
2019-05-05T15:38:25.201Z,3.20
2019-05-05T15:40:54.763Z,3.27
2019-05-05T15:43:24.259Z,5.07
2019-05-05T15:45:53.976Z,4.10
2019-05-05T15:48:22.886Z,2.97
2019-05-05T15:50:51.574Z,2.93
2019-05-05T15:53:20.507Z,2.90
2019-05-05T15:55:49.157Z,4.80
2019-05-05T15:58:20.674Z,8.13
2019-05-05T16:00:48.017Z,4.23
2019-05-05T16:03:16.755Z,5.13
2019-05-05T16:05:45.326Z,3.83
2019-05-05T16:08:14.188Z,5.53
2019-05-05T16:10:43.947Z,3.50
2019-05-05T16:13:13.848Z,4.63
2019-05-05T16:15:44.329Z,3.77
2019-05-05T16:18:17.637Z,4.90
2019-05-05T16:20:54.654Z,4.37
2019-05-05T16:23:28.157Z,4.33
2019-05-05T16:25:56.717Z,3.50
2019-05-05T16:28:25.358Z,4.07
2019-05-05T16:30:56.150Z,4.53
2019-05-05T16:33:24.444Z,3.90
2019-05-05T16:35:53.094Z,4.37
2019-05-05T16:38:24.051Z,3.50
2019-05-05T16:40:53.788Z,3.90
2019-05-05T16:43:24.694Z,2.77
2019-05-05T16:45:53.852Z,3.13
2019-05-05T16:48:25.294Z,2.30
2019-05-05T16:50:54.171Z,3.90
2019-05-05T16:53:36.793Z,3.53
2019-05-05T16:56:09.463Z,2.93
2019-05-05T16:58:38.165Z,2.43
2019-05-05T17:01:08.545Z,2.50
2019-05-05T17:03:37.242Z,3.53
2019-05-05T17:06:06.166Z,2.83
2019-05-05T17:08:36.276Z,2.17
2019-05-05T17:11:04.974Z,2.43
2019-05-05T17:13:55.000Z,3.23
2019-05-05T17:16:41.501Z,2.23
2019-05-05T17:19:14.589Z,2.10
2019-05-05T17:21:47.625Z,2.00
2019-05-05T17:24:16.281Z,2.37
2019-05-05T17:26:44.919Z,2.30
2019-05-05T17:29:14.610Z,1.73
2019-05-05T17:31:44.422Z,2.77
2019-05-05T17:34:13.757Z,2.23
2019-05-05T17:36:42.508Z,2.27
2019-05-05T17:39:11.190Z,4.20
2019-05-05T17:41:47.265Z,5.73
2019-05-05T17:44:17.522Z,3.47
2019-05-05T17:47:04.505Z,2.80
2019-05-05T17:49:50.973Z,2.40
2019-05-05T17:52:29.663Z,2.43
2019-05-05T17:54:59.067Z,3.10
2019-05-05T17:57:27.696Z,2.93
2019-05-05T17:59:56.390Z,3.07
2019-05-05T18:02:24.933Z,1.93
2019-05-05T18:04:54.061Z,4.00
2019-05-05T18:07:28.158Z,2.83
2019-05-05T18:10:04.357Z,2.60
2019-05-05T18:12:37.765Z,3.73
2019-05-05T18:15:08.290Z,6.03
2019-05-05T18:17:36.797Z,2.93
2019-05-05T18:20:07.175Z,6.77
2019-05-05T18:22:35.705Z,3.47
2019-05-05T18:25:06.306Z,3.30
2019-05-05T18:27:35.327Z,3.93
2019-05-05T18:30:05.697Z,3.23
2019-05-05T18:32:34.324Z,3.93
2019-05-05T18:35:06.365Z,4.90
2019-05-05T18:37:33.960Z,6.67
2019-05-05T18:40:04.074Z,4.30
2019-05-05T18:42:33.974Z,2.90
2019-05-05T18:45:04.334Z,3.07
2019-05-05T18:47:34.061Z,2.90
2019-05-05T18:50:04.129Z,4.27
2019-05-05T18:52:34.596Z,4.77
2019-05-05T18:55:04.586Z,3.47
2019-05-05T18:57:34.142Z,5.13
2019-05-05T19:00:04.526Z,3.17
2019-05-05T19:02:34.790Z,4.53
2019-05-05T19:05:05.614Z,2.67
2019-05-05T19:07:35.788Z,2.90
2019-05-05T19:10:06.952Z,3.03
2019-05-05T19:12:35.555Z,3.73
2019-05-05T19:15:06.350Z,3.50
2019-05-05T19:17:34.974Z,3.47
2019-05-05T19:20:07.178Z,2.43
2019-05-05T19:22:36.151Z,2.07
2019-05-05T19:25:15.021Z,2.47
2019-05-05T19:27:45.072Z,3.70
2019-05-05T19:30:15.315Z,5.53
2019-05-05T19:32:43.948Z,3.50
2019-05-05T19:35:12.717Z,2.70
2019-05-05T19:37:41.360Z,4.80
2019-05-05T19:40:10.026Z,2.40
2019-05-05T19:42:38.617Z,5.30
2019-05-05T19:45:07.796Z,3.23
2019-05-05T19:47:36.556Z,3.80
2019-05-05T19:50:24.418Z,4.57
2019-05-05T19:52:53.865Z,3.73
2019-05-05T19:55:22.537Z,3.70
2019-05-05T19:57:51.205Z,2.57
2019-05-05T20:00:20.062Z,2.93
2019-05-05T20:03:01.301Z,2.80
2019-05-05T20:05:19.405Z,3.10
2019-05-05T20:07:48.122Z,3.27
2019-05-05T20:10:16.798Z,2.60
2019-05-05T20:12:46.965Z,5.47
2019-05-05T20:15:20.168Z,3.90
2019-05-05T20:17:48.773Z,3.27
2019-05-05T20:20:17.780Z,3.23
2019-05-05T20:22:46.302Z,3.10
2019-05-05T20:25:15.462Z,3.97
2019-05-05T20:27:44.897Z,6.30
2019-05-05T20:30:14.238Z,3.07
2019-05-05T20:32:44.646Z,3.47
2019-05-05T20:35:24.066Z,2.90
2019-05-05T20:37:54.321Z,4.33
2019-05-05T20:40:24.539Z,2.57
2019-05-05T20:42:54.247Z,2.63
2019-05-05T20:45:24.837Z,2.53
2019-05-05T20:47:53.729Z,2.40
2019-05-05T20:50:24.593Z,2.63
2019-05-05T20:52:53.550Z,2.33
2019-05-05T20:55:22.304Z,11.00
2019-05-05T20:57:50.981Z,3.67
2019-05-05T21:00:19.738Z,3.47
2019-05-05T21:02:48.197Z,2.57
2019-05-05T21:05:16.847Z,3.37
2019-05-05T21:07:45.379Z,4.33
2019-05-05T21:10:14.498Z,3.17
2019-05-05T21:12:45.432Z,4.80
2019-05-05T21:15:14.333Z,3.03
2019-05-05T21:17:44.808Z,2.80
2019-05-05T21:20:14.538Z,3.97
2019-05-05T21:22:50.846Z,3.33
2019-05-05T21:25:24.118Z,2.90
2019-05-05T21:27:52.843Z,3.23
2019-05-05T21:30:23.713Z,2.73
2019-05-05T21:32:51.710Z,5.53
2019-05-05T21:35:20.409Z,3.93
2019-05-05T21:37:49.037Z,3.20
2019-05-05T21:40:18.529Z,4.07
2019-05-05T21:42:47.159Z,4.30
2019-05-05T21:45:15.762Z,3.37
2019-05-05T21:47:44.453Z,3.80
2019-05-05T21:50:14.706Z,3.40
2019-05-05T21:52:44.941Z,5.60
2019-05-05T21:55:18.061Z,4.90
2019-05-05T21:57:57.223Z,5.07
2019-05-05T22:00:44.328Z,5.87
2019-05-05T22:03:14.801Z,3.60
2019-05-05T22:05:43.363Z,3.80
2019-05-05T22:08:14.238Z,4.07
2019-05-05T22:10:42.252Z,3.73
2019-05-05T22:13:10.872Z,3.37
2019-05-05T22:15:39.473Z,3.13
2019-05-05T22:18:07.946Z,3.87
2019-05-05T22:20:38.197Z,3.30
2019-05-05T22:23:06.817Z,3.93
2019-05-05T22:25:35.420Z,3.77
2019-05-05T22:28:04.333Z,4.43
2019-05-05T22:30:34.417Z,2.53
2019-05-05T22:33:05.794Z,3.53
2019-05-05T22:35:34.946Z,3.27
2019-05-05T22:38:06.037Z,4.10
2019-05-05T22:40:34.642Z,3.03
2019-05-05T22:43:03.774Z,2.63
2019-05-05T22:45:34.220Z,3.10
2019-05-05T22:48:04.715Z,5.20
2019-05-05T22:50:34.099Z,3.40
2019-05-05T22:53:02.990Z,3.30
2019-05-05T22:55:34.243Z,3.03
2019-05-05T22:58:04.013Z,3.17
2019-05-05T23:00:34.824Z,3.37
2019-05-05T23:03:10.863Z,3.47
2019-05-05T23:05:41.056Z,3.50
2019-05-05T23:08:09.586Z,3.63
2019-05-05T23:10:38.305Z,3.07
2019-05-05T23:13:06.847Z,3.87
2019-05-05T23:15:37.086Z,6.03
2019-05-05T23:18:10.371Z,3.63
2019-05-05T23:20:54.282Z,4.33
2019-05-05T23:23:39.921Z,3.77
2019-05-05T23:26:21.921Z,3.80
2019-05-05T23:28:50.437Z,3.90
2019-05-05T23:31:19.001Z,4.70
2019-05-05T23:33:47.497Z,2.80
2019-05-05T23:36:16.058Z,2.83
2019-05-05T23:38:45.039Z,3.77
2019-05-05T23:41:14.582Z,5.00
2019-05-05T23:43:45.055Z,2.60
2019-05-05T23:46:14.375Z,3.77
2019-05-05T23:48:43.355Z,4.17
2019-05-05T23:51:14.015Z,3.27
2019-05-05T23:53:44.421Z,3.80
2019-05-05T23:56:13.621Z,3.80
2019-05-05T23:58:44.161Z,4.40
